createdAt,value
2022-09-01T00:01:50.125Z,62.49
2022-09-01T00:04:20.080Z,62.58
2022-09-01T00:06:48.339Z,62.33
2022-09-01T00:09:17.691Z,62.24
2022-09-01T00:11:50.726Z,62.24
2022-09-01T00:14:30.029Z,62.26
2022-09-01T00:17:01.074Z,62.44
2022-09-01T00:19:33.313Z,63.25
2022-09-01T00:22:03.123Z,63.34
2022-09-01T00:24:31.328Z,63.52
2022-09-01T00:26:59.068Z,63.99
2022-09-01T00:29:27.415Z,63.22
2022-09-01T00:31:55.208Z,63.39
2022-09-01T00:34:24.324Z,63.89
2022-09-01T00:36:52.072Z,63.47
2022-09-01T00:39:19.789Z,63.46
2022-09-01T00:41:47.917Z,63.62
2022-09-01T00:44:18.843Z,63.62
2022-09-01T00:46:55.347Z,63.38
2022-09-01T00:49:29.605Z,63.82
2022-09-01T00:52:12.700Z,63.85
2022-09-01T00:54:43.094Z,63.94
2022-09-01T00:57:12.564Z,63.98
2022-09-01T00:59:44.937Z,65.38
2022-09-01T01:02:12.991Z,65.17
2022-09-01T01:04:43.606Z,65.81
2022-09-01T01:07:12.256Z,64.73
2022-09-01T01:09:43.773Z,65.19
2022-09-01T01:12:18.439Z,65.26
2022-09-01T01:14:50.005Z,66.90
2022-09-01T01:17:18.229Z,65.42
2022-09-01T01:20:06.423Z,65.13
2022-09-01T01:22:58.659Z,65.35
2022-09-01T01:25:28.521Z,64.88
2022-09-01T01:28:05.841Z,64.56
2022-09-01T01:30:36.929Z,64.41
2022-09-01T01:33:05.311Z,64.13
2022-09-01T01:35:33.642Z,64.24
2022-09-01T01:38:06.823Z,64.16
2022-09-01T01:40:36.614Z,64.62
2022-09-01T01:43:04.797Z,64.92
2022-09-01T01:45:32.834Z,65.04
2022-09-01T01:48:01.064Z,64.56
2022-09-01T01:50:35.704Z,65.61
2022-09-01T01:53:11.364Z,64.59
2022-09-01T01:55:43.564Z,64.84
2022-09-01T01:58:12.427Z,64.24
2022-09-01T02:00:42.757Z,64.53
2022-09-01T02:03:12.578Z,64.26
2022-09-01T02:05:40.648Z,64.52
2022-09-01T02:08:10.380Z,64.45
2022-09-01T02:10:43.605Z,64.37
2022-09-01T02:13:16.309Z,63.94
2022-09-01T02:15:45.895Z,64.29
2022-09-01T02:18:16.458Z,64.49
2022-09-01T02:20:44.751Z,63.98
2022-09-01T02:23:12.694Z,64.07
2022-09-01T02:26:05.085Z,64.30
2022-09-01T02:28:34.845Z,63.55
2022-09-01T02:31:03.843Z,63.83
2022-09-01T02:33:32.571Z,64.11
2022-09-01T02:36:04.091Z,63.79
2022-09-01T02:38:33.708Z,63.66
2022-09-01T02:41:03.640Z,63.97
2022-09-01T02:43:31.997Z,64.08
2022-09-01T02:46:03.149Z,64.27
2022-09-01T02:48:35.766Z,65.13
2022-09-01T02:51:05.544Z,64.94
2022-09-01T02:53:35.425Z,65.68
2022-09-01T02:56:09.374Z,64.98
2022-09-01T02:58:40.745Z,66.30
2022-09-01T03:01:13.510Z,65.77
2022-09-01T03:03:41.476Z,65.14
2022-09-01T03:06:10.056Z,65.10
2022-09-01T03:08:39.588Z,64.76
2022-09-01T03:11:12.968Z,65.79
2022-09-01T03:13:42.294Z,66.16
2022-09-01T03:16:11.162Z,66.41
2022-09-01T03:18:40.146Z,66.95
2022-09-01T03:21:08.196Z,66.83
2022-09-01T03:23:37.875Z,66.99
2022-09-01T03:26:05.871Z,66.92
2022-09-01T03:28:34.964Z,66.41
2022-09-01T03:31:04.441Z,66.16
2022-09-01T03:33:32.763Z,65.91
2022-09-01T03:36:00.653Z,65.94
2022-09-01T03:38:28.605Z,65.89
2022-09-01T03:41:02.504Z,65.55
2022-09-01T03:43:36.080Z,65.44
2022-09-01T03:46:05.639Z,65.61
2022-09-01T03:48:33.443Z,65.72
2022-09-01T03:51:02.576Z,65.76
2022-09-01T03:53:32.300Z,65.32
2022-09-01T03:56:03.076Z,65.48
2022-09-01T03:58:30.958Z,65.71
2022-09-01T04:01:03.249Z,65.51
2022-09-01T04:03:34.616Z,65.20
2022-09-01T04:06:06.849Z,65.12
2022-09-01T04:08:34.911Z,65.18
2022-09-01T04:11:05.159Z,65.51
2022-09-01T04:13:35.927Z,65.78
2022-09-01T04:16:10.319Z,65.40
2022-09-01T04:18:39.941Z,66.32
2022-09-01T04:21:08.856Z,65.99
2022-09-01T04:23:37.146Z,65.89
2022-09-01T04:26:09.966Z,65.83
2022-09-01T04:28:41.163Z,65.75
2022-09-01T04:31:14.742Z,66.29
2022-09-01T04:33:46.537Z,66.29
2022-09-01T04:36:19.186Z,67.18
2022-09-01T04:38:47.005Z,67.73
2022-09-01T04:41:17.735Z,68.22
2022-09-01T04:43:47.286Z,68.31
2022-09-01T04:46:15.518Z,68.66
2022-09-01T04:48:45.966Z,69.29
2022-09-01T04:51:15.356Z,69.00
2022-09-01T04:53:48.529Z,68.46
2022-09-01T04:56:19.353Z,67.85
2022-09-01T04:58:47.833Z,68.02
2022-09-01T05:01:17.333Z,67.10
2022-09-01T05:03:48.085Z,66.99
2022-09-01T05:06:17.560Z,66.94
2022-09-01T05:08:46.145Z,66.25
2022-09-01T05:11:17.727Z,66.04
2022-09-01T05:13:46.192Z,65.94
2022-09-01T05:16:19.434Z,65.82
2022-09-01T05:18:56.789Z,66.17
2022-09-01T05:21:26.505Z,66.32
2022-09-01T05:23:54.543Z,66.75
2022-09-01T05:26:26.045Z,66.39
2022-09-01T05:28:55.748Z,66.77
2022-09-01T05:31:24.716Z,67.45
2022-09-01T05:33:53.795Z,68.57
2022-09-01T05:36:23.277Z,69.65
2022-09-01T05:38:52.226Z,68.67
2022-09-01T05:41:20.891Z,68.62
2022-09-01T05:43:55.144Z,68.65
2022-09-01T05:46:28.008Z,70.37
2022-09-01T05:48:57.993Z,69.65
2022-09-01T05:51:45.661Z,71.42
2022-09-01T05:54:15.162Z,72.35
2022-09-01T05:56:44.753Z,72.47
2022-09-01T05:59:28.609Z,70.95
2022-09-01T06:01:56.847Z,73.08
2022-09-01T06:04:26.744Z,72.22
2022-09-01T06:07:06.414Z,72.56
2022-09-01T06:09:39.300Z,73.39
2022-09-01T06:12:11.908Z,73.25
2022-09-01T06:14:39.636Z,74.23
2022-09-01T06:17:10.004Z,74.28
2022-09-01T06:19:39.928Z,74.48
2022-09-01T06:22:08.103Z,76.53
2022-09-01T06:24:36.703Z,74.94
2022-09-01T06:27:07.367Z,76.98
2022-09-01T06:29:35.108Z,77.56
2022-09-01T06:32:08.269Z,76.60
2022-09-01T06:34:36.259Z,78.25
2022-09-01T06:37:06.916Z,78.36
2022-09-01T06:39:35.018Z,80.09
2022-09-01T06:42:28.108Z,80.26
2022-09-01T06:44:55.880Z,79.27
2022-09-01T06:47:24.143Z,79.28
2022-09-01T06:49:58.923Z,79.62
2022-09-01T06:52:28.717Z,77.92
2022-09-01T06:54:57.698Z,78.48
2022-09-01T07:00:18.886Z,79.77
2022-09-01T07:02:47.739Z,78.58
2022-09-01T07:08:10.839Z,79.88
2022-09-01T07:13:34.295Z,78.15
2022-09-01T07:18:59.819Z,78.11
2022-09-01T07:21:39.200Z,77.00
2022-09-01T07:24:11.702Z,78.27
2022-09-01T07:26:47.803Z,77.78
2022-09-01T07:29:15.610Z,75.80
2022-09-01T07:32:43.780Z,76.98
2022-09-01T07:34:40.368Z,75.19
2022-09-01T07:45:30.875Z,70.92
2022-09-01T07:48:04.001Z,70.78
2022-09-01T07:51:07.555Z,71.21
2022-09-01T07:53:22.488Z,68.88
2022-09-01T07:55:52.717Z,69.19
2022-09-01T07:58:21.934Z,67.29
2022-09-01T08:00:50.027Z,67.97
2022-09-01T08:03:19.384Z,67.12
2022-09-01T08:05:51.240Z,66.61
2022-09-01T08:08:19.352Z,66.99
2022-09-01T08:10:49.427Z,66.24
2022-09-01T08:13:22.201Z,67.15
2022-09-01T08:18:53.583Z,65.27
2022-09-01T08:21:23.304Z,64.92
2022-09-01T08:23:51.596Z,64.72
2022-09-01T08:26:22.198Z,64.91
2022-09-01T08:28:55.260Z,63.68
2022-09-01T08:31:24.790Z,62.30
2022-09-01T08:33:52.741Z,62.45
2022-09-01T08:36:24.075Z,62.30
2022-09-01T08:38:53.641Z,61.75
2022-09-01T08:41:28.653Z,62.04
2022-09-01T08:44:03.772Z,61.32
2022-09-01T08:46:36.087Z,62.80
2022-09-01T08:49:24.930Z,61.38
2022-09-01T08:51:55.165Z,62.44
2022-09-01T08:54:29.640Z,61.02
2022-09-01T08:57:03.284Z,62.07
2022-09-01T08:59:32.370Z,60.73
2022-09-01T09:02:07.726Z,60.27
2022-09-01T09:04:49.205Z,59.32
2022-09-01T09:07:24.149Z,59.48
2022-09-01T09:09:56.596Z,58.75
2022-09-01T09:12:35.294Z,56.58
2022-09-01T09:15:12.797Z,56.38
2022-09-01T09:17:42.963Z,56.29
2022-09-01T09:20:10.935Z,55.77
2022-09-01T09:22:38.765Z,56.24
2022-09-01T09:25:09.475Z,55.79
2022-09-01T09:27:39.937Z,56.15
2022-09-01T09:30:11.757Z,57.08
2022-09-01T09:35:38.576Z,55.49
2022-09-01T09:38:21.713Z,54.66
2022-09-01T09:41:18.318Z,55.86
2022-09-01T09:43:49.656Z,55.04
2022-09-01T09:46:28.603Z,55.38
2022-09-01T09:49:32.582Z,55.45
2022-09-01T09:52:16.650Z,55.75
2022-09-01T09:55:03.032Z,55.79
2022-09-01T09:57:31.484Z,54.79
2022-09-01T10:00:04.110Z,55.91
2022-09-01T10:02:36.339Z,56.23
2022-09-01T10:05:24.378Z,53.81
2022-09-01T10:07:53.253Z,52.38
2022-09-01T10:10:31.331Z,53.51
2022-09-01T10:13:01.869Z,53.57
2022-09-01T10:15:31.805Z,53.49
2022-09-01T10:20:56.170Z,52.70
2022-09-01T10:23:27.264Z,51.97
2022-09-01T10:26:05.944Z,52.17
2022-09-01T10:28:35.021Z,51.06
2022-09-01T10:31:05.297Z,51.52
2022-09-01T10:33:37.947Z,50.85
2022-09-01T10:36:08.002Z,50.49
2022-09-01T10:38:36.260Z,50.71
2022-09-01T10:41:14.888Z,51.48
2022-09-01T10:43:44.977Z,50.82
2022-09-01T10:46:50.484Z,52.01
2022-09-01T10:49:27.711Z,50.72
2022-09-01T10:52:08.544Z,49.57
2022-09-01T10:54:58.824Z,50.38
2022-09-01T10:57:43.397Z,50.24
2022-09-01T11:01:10.617Z,50.14
2022-09-01T11:03:50.525Z,50.74
2022-09-01T11:07:14.422Z,50.39
2022-09-01T11:09:44.003Z,49.95
2022-09-01T11:12:30.286Z,51.08
2022-09-01T11:14:59.471Z,50.37
2022-09-01T11:17:28.763Z,50.18
2022-09-01T11:19:59.933Z,50.75
2022-09-01T11:22:38.409Z,50.37
2022-09-01T11:25:12.658Z,50.60
2022-09-01T11:27:58.747Z,51.38
2022-09-01T11:30:35.118Z,50.76
2022-09-01T11:33:12.548Z,50.45
2022-09-01T11:35:40.333Z,50.75
2022-09-01T11:38:10.333Z,50.33
2022-09-01T11:40:38.161Z,50.60
2022-09-01T11:43:12.527Z,50.27
2022-09-01T11:45:46.141Z,50.58
2022-09-01T11:48:14.521Z,50.86
2022-09-01T11:50:43.482Z,51.57
2022-09-01T11:53:15.536Z,51.57
2022-09-01T11:55:44.947Z,51.26
2022-09-01T11:58:17.785Z,50.87
2022-09-01T12:00:45.828Z,50.49
2022-09-01T12:03:22.270Z,49.75
2022-09-01T12:05:59.142Z,47.71
2022-09-01T12:08:30.546Z,48.82
2022-09-01T12:11:05.799Z,50.29
2022-09-01T12:13:33.612Z,50.80
2022-09-01T12:16:19.444Z,49.18
2022-09-01T12:18:49.800Z,49.60
2022-09-01T12:21:21.641Z,50.06
2022-09-01T12:23:50.800Z,51.09
2022-09-01T12:26:20.601Z,50.78
2022-09-01T12:28:49.715Z,50.51
2022-09-01T12:31:20.408Z,51.10
2022-09-01T12:33:49.273Z,50.11
2022-09-01T12:36:23.142Z,49.92
2022-09-01T12:38:52.911Z,50.59
2022-09-01T12:41:33.752Z,49.42
2022-09-01T12:44:30.351Z,49.29
2022-09-01T12:47:00.422Z,49.27
2022-09-01T12:49:37.167Z,49.30
2022-09-01T12:52:21.943Z,48.55
2022-09-01T12:54:53.073Z,48.24
2022-09-01T12:57:28.478Z,47.77
2022-09-01T13:00:10.367Z,47.96
2022-09-01T13:02:40.731Z,47.97
2022-09-01T13:05:31.148Z,48.39
2022-09-01T13:08:04.003Z,49.04
2022-09-01T13:10:35.570Z,48.50
2022-09-01T13:13:03.295Z,48.73
2022-09-01T13:15:31.970Z,49.31
2022-09-01T13:17:59.771Z,48.81
2022-09-01T13:20:27.844Z,49.62
2022-09-01T13:22:55.644Z,49.66
2022-09-01T13:25:24.095Z,50.18
2022-09-01T13:27:54.807Z,50.58
2022-09-01T13:30:24.925Z,50.32
2022-09-01T13:35:40.731Z,50.48
2022-09-01T13:38:08.431Z,50.51
2022-09-01T13:40:36.156Z,50.81
2022-09-01T13:43:06.207Z,51.15
2022-09-01T13:45:34.270Z,51.31
2022-09-01T13:48:18.793Z,50.94
2022-09-01T13:53:37.504Z,50.75
2022-09-01T13:56:06.275Z,50.70
2022-09-01T13:58:35.296Z,51.35
2022-09-01T14:01:05.493Z,51.09
2022-09-01T14:03:33.423Z,51.09
2022-09-01T14:06:03.076Z,51.48
2022-09-01T14:08:31.284Z,51.93
2022-09-01T14:10:59.032Z,52.19
2022-09-01T14:13:28.515Z,52.64
2022-09-01T14:15:58.108Z,52.34
2022-09-01T14:18:32.788Z,52.11
2022-09-01T14:21:02.607Z,51.90
2022-09-01T14:23:30.322Z,51.40
2022-09-01T14:25:58.715Z,51.16
2022-09-01T14:28:26.436Z,51.15
2022-09-01T14:33:24.310Z,51.14
2022-09-01T14:35:52.332Z,51.29
2022-09-01T14:38:20.588Z,51.52
2022-09-01T14:40:49.268Z,51.44
2022-09-01T14:43:17.739Z,52.37
2022-09-01T14:45:48.056Z,51.70
2022-09-01T14:48:18.165Z,51.92
2022-09-01T14:50:49.929Z,51.75
2022-09-01T14:53:18.213Z,52.48
2022-09-01T14:55:45.939Z,52.59
2022-09-01T14:58:13.620Z,52.85
2022-09-01T15:00:42.637Z,52.92
2022-09-01T15:03:10.614Z,53.22
2022-09-01T15:05:39.896Z,54.01
2022-09-01T15:08:15.524Z,54.07
2022-09-01T15:10:44.817Z,53.72
2022-09-01T15:13:13.573Z,53.74
2022-09-01T15:15:41.604Z,53.49
2022-09-01T15:18:09.326Z,53.47
2022-09-01T15:20:46.465Z,53.04
2022-09-01T15:23:18.036Z,52.65
2022-09-01T15:25:46.057Z,52.05
2022-09-01T15:28:13.992Z,51.86
2022-09-01T15:30:43.982Z,52.14
2022-09-01T15:33:15.572Z,52.27
2022-09-01T15:35:44.703Z,52.70
2022-09-01T15:38:17.889Z,52.13
2022-09-01T15:40:55.385Z,52.16
2022-09-01T15:43:27.602Z,52.84
2022-09-01T15:45:57.943Z,52.48
2022-09-01T15:48:26.048Z,53.30
2022-09-01T15:50:54.351Z,53.19
2022-09-01T15:53:22.237Z,53.16
2022-09-01T15:55:51.795Z,52.60
2022-09-01T15:58:20.101Z,52.69
2022-09-01T16:00:47.981Z,52.30
2022-09-01T16:03:16.764Z,52.82
2022-09-01T16:05:44.566Z,52.34
2022-09-01T16:08:12.902Z,52.26
2022-09-01T16:10:42.150Z,52.20
2022-09-01T16:13:12.914Z,52.07
2022-09-01T16:15:45.378Z,51.83
2022-09-01T16:18:21.555Z,51.25
2022-09-01T16:20:56.456Z,51.60
2022-09-01T16:23:25.765Z,51.46
2022-09-01T16:25:54.139Z,51.68
2022-09-01T16:28:29.709Z,51.80
2022-09-01T16:31:03.028Z,52.31
2022-09-01T16:33:30.888Z,52.25
2022-09-01T16:36:17.076Z,52.66
2022-09-01T16:38:49.018Z,52.80
2022-09-01T16:41:28.977Z,53.30
2022-09-01T16:44:05.666Z,53.03
2022-09-01T16:46:36.607Z,53.25
2022-09-01T16:49:14.480Z,53.22
2022-09-01T16:51:49.641Z,53.13
2022-09-01T16:54:24.849Z,53.17
2022-09-01T16:56:56.072Z,53.39
2022-09-01T16:59:33.756Z,53.19
2022-09-01T17:02:16.864Z,53.10
2022-09-01T17:04:48.299Z,53.83
2022-09-01T17:07:18.536Z,53.93
2022-09-01T17:09:59.068Z,53.72
2022-09-01T17:12:33.189Z,53.58
2022-09-01T17:15:09.984Z,53.79
2022-09-01T17:17:43.356Z,53.94
2022-09-01T17:20:11.889Z,53.95
2022-09-01T17:22:39.755Z,53.58
2022-09-01T17:25:09.863Z,53.88
2022-09-01T17:27:41.490Z,53.20
2022-09-01T17:30:11.379Z,53.88
2022-09-01T17:32:51.632Z,53.87
2022-09-01T17:35:25.780Z,53.63
2022-09-01T17:38:05.901Z,53.91
2022-09-01T17:40:50.265Z,54.21
2022-09-01T17:43:24.044Z,54.32
2022-09-01T17:45:58.507Z,54.50
2022-09-01T17:48:39.528Z,54.39
2022-09-01T17:51:10.836Z,54.62
2022-09-01T17:53:43.978Z,55.26
2022-09-01T17:56:22.015Z,54.91
2022-09-01T17:58:53.384Z,55.11
2022-09-01T18:01:27.712Z,54.63
2022-09-01T18:04:10.193Z,55.10
2022-09-01T18:06:45.450Z,55.77
2022-09-01T18:09:16.355Z,56.26
2022-09-01T18:11:49.563Z,55.87
2022-09-01T18:14:20.648Z,55.49
2022-09-01T18:16:58.339Z,55.62
2022-09-01T18:19:28.453Z,55.23
2022-09-01T18:21:57.940Z,56.22
2022-09-01T18:24:29.704Z,56.07
2022-09-01T18:26:57.460Z,56.40
2022-09-01T18:29:29.541Z,56.70
2022-09-01T18:32:11.865Z,57.31
2022-09-01T18:35:08.004Z,57.15
2022-09-01T18:37:42.317Z,56.75
2022-09-01T18:40:17.110Z,56.97
2022-09-01T18:42:49.928Z,57.09
2022-09-01T18:45:25.409Z,56.86
2022-09-01T18:48:00.838Z,57.66
2022-09-01T18:50:31.009Z,57.74
2022-09-01T18:53:06.625Z,57.42
2022-09-01T18:55:40.125Z,58.06
2022-09-01T18:58:12.349Z,57.56
2022-09-01T19:00:45.239Z,58.04
2022-09-01T19:03:27.121Z,57.03
2022-09-01T19:06:05.923Z,57.49
2022-09-01T19:08:43.408Z,58.04
2022-09-01T19:11:18.635Z,57.46
2022-09-01T19:13:54.063Z,58.00
2022-09-01T19:16:32.817Z,57.59
2022-09-01T19:19:07.660Z,58.06
2022-09-01T19:21:37.784Z,57.78
2022-09-01T19:24:08.956Z,58.13
2022-09-01T19:26:39.959Z,57.87
2022-09-01T19:29:11.816Z,57.84
2022-09-01T19:31:42.436Z,57.90
2022-09-01T19:34:15.984Z,58.57
2022-09-01T19:36:47.340Z,57.89
2022-09-01T19:39:17.994Z,58.83
2022-09-01T19:41:49.465Z,59.24
2022-09-01T19:44:22.510Z,58.97
2022-09-01T19:46:52.642Z,58.95
2022-09-01T19:49:30.418Z,59.14
2022-09-01T19:52:03.882Z,58.67
2022-09-01T19:54:40.656Z,59.06
2022-09-01T19:57:11.932Z,59.25
2022-09-01T19:59:48.677Z,59.46
2022-09-01T20:02:24.524Z,58.73
2022-09-01T20:04:57.487Z,59.39
2022-09-01T20:07:30.543Z,59.88
2022-09-01T20:10:16.664Z,58.80
2022-09-01T20:12:48.623Z,59.38
2022-09-01T20:15:19.468Z,59.16
2022-09-01T20:17:49.836Z,58.40
2022-09-01T20:20:23.784Z,59.17
2022-09-01T20:22:58.384Z,59.86
2022-09-01T20:25:28.725Z,58.81
2022-09-01T20:28:03.514Z,59.16
2022-09-01T20:30:36.926Z,58.81
2022-09-01T20:33:09.870Z,58.36
2022-09-01T20:35:42.265Z,58.70
2022-09-01T20:38:29.511Z,58.53
2022-09-01T20:40:58.088Z,58.73
2022-09-01T20:43:29.344Z,58.61
2022-09-01T20:45:57.138Z,58.72
2022-09-01T20:48:26.711Z,58.70
2022-09-01T20:50:59.943Z,58.77
2022-09-01T20:53:55.125Z,59.51
2022-09-01T20:56:30.792Z,58.81
2022-09-01T20:59:02.073Z,59.02
2022-09-01T21:01:35.372Z,59.21
2022-09-01T21:04:09.394Z,59.51
2022-09-01T21:06:50.172Z,59.34
2022-09-01T21:09:23.607Z,59.78
2022-09-01T21:11:55.736Z,59.60
2022-09-01T21:14:34.584Z,59.45
2022-09-01T21:17:10.739Z,59.28
2022-09-01T21:19:47.849Z,59.68
2022-09-01T21:22:22.122Z,59.39
2022-09-01T21:24:50.636Z,59.48
2022-09-01T21:27:20.197Z,59.33
2022-09-01T21:29:55.174Z,59.57
2022-09-01T21:32:23.736Z,59.29
2022-09-01T21:34:52.939Z,59.06
2022-09-01T21:37:23.657Z,58.89
2022-09-01T21:39:52.951Z,59.08
2022-09-01T21:42:22.079Z,59.01
2022-09-01T21:44:50.024Z,58.81
2022-09-01T21:47:22.480Z,58.80
2022-09-01T21:49:50.276Z,58.89
2022-09-01T21:52:20.122Z,58.77
2022-09-01T21:54:49.389Z,58.81
2022-09-01T21:57:17.129Z,58.76
2022-09-01T21:59:45.016Z,58.82
2022-09-01T22:02:12.915Z,58.87
2022-09-01T22:04:40.716Z,58.81
2022-09-01T22:07:20.934Z,58.77
2022-09-01T22:09:50.250Z,58.99
2022-09-01T22:12:18.046Z,59.06
2022-09-01T22:14:45.801Z,59.15
2022-09-01T22:17:13.497Z,58.96
2022-09-01T22:19:41.293Z,59.27
2022-09-01T22:22:09.324Z,59.28
2022-09-01T22:24:37.076Z,59.05
2022-09-01T22:27:06.259Z,59.06
2022-09-01T22:29:33.975Z,59.18
2022-09-01T22:32:01.710Z,59.25
2022-09-01T22:34:29.640Z,59.28
2022-09-01T22:36:57.335Z,59.72
2022-09-01T22:39:25.271Z,60.25
2022-09-01T22:41:53.951Z,59.90
2022-09-01T22:44:24.729Z,60.06
2022-09-01T22:46:52.483Z,59.85
2022-09-01T22:49:20.194Z,59.89
2022-09-01T22:51:47.977Z,59.97
2022-09-01T22:54:15.803Z,59.99
2022-09-01T22:56:44.017Z,59.95
2022-09-01T22:59:13.807Z,60.44
2022-09-01T23:01:44.967Z,60.39
2022-09-01T23:04:14.040Z,60.33
2022-09-01T23:06:44.782Z,60.01
2022-09-01T23:09:13.268Z,59.83
2022-09-01T23:11:41.235Z,60.22
2022-09-01T23:14:09.113Z,60.35
2022-09-01T23:16:36.988Z,60.15
2022-09-01T23:19:06.348Z,60.27
2022-09-01T23:21:36.468Z,60.24
2022-09-01T23:24:04.610Z,60.37
2022-09-01T23:26:32.810Z,60.57
2022-09-01T23:29:00.619Z,60.85
2022-09-01T23:31:31.398Z,61.05
2022-09-01T23:34:02.325Z,60.69
2022-09-01T23:36:31.501Z,60.66
2022-09-01T23:38:59.218Z,61.07
2022-09-01T23:41:30.958Z,60.67
2022-09-01T23:44:00.807Z,61.04
2022-09-01T23:46:34.031Z,61.67
2022-09-01T23:49:04.021Z,60.77
2022-09-01T23:51:33.272Z,60.96
2022-09-01T23:54:02.955Z,60.68
2022-09-01T23:56:30.894Z,60.76
2022-09-01T23:58:59.241Z,60.95
